Time;durP1;ratioP1;P1;durP2;ratioP2;P2;SDS_P1;SDS_P2;PMS_P1;PMS_P2;Temp;Humidity;BMP_temperature;BMP_pressure;BME280_temperature;BME280_humidity;BME280_pressure;Samples;Min_cycle;Max_cycle;Signal;HPM_P1;HPM_P2
2022/06/30 00:00:45;;;;;;;5.30;2.70;;;22.20;91.70;;;;;;5089980;28;20565;-74
2022/06/30 00:03:11;;;;;;;4.13;2.57;;;22.10;91.40;;;;;;5091613;28;20417;-74
2022/06/30 00:05:36;;;;;;;3.25;2.35;;;22.10;91.90;;;;;;5097805;28;20416;-73
2022/06/30 00:08:02;;;;;;;4.20;2.30;;;22.10;91.80;;;;;;5089799;28;20465;-73
2022/06/30 00:10:28;;;;;;;4.40;2.55;;;22.20;91.60;;;;;;5090194;28;20404;-73
2022/06/30 00:12:54;;;;;;;3.77;2.20;;;22.10;91.60;;;;;;5081393;28;20444;-73
2022/06/30 00:15:20;;;;;;;3.70;2.38;;;22.20;91.40;;;;;;5101189;28;20416;-73
2022/06/30 00:17:46;;;;;;;4.60;2.38;;;22.20;91.20;;;;;;5091376;28;20431;-73
2022/06/30 00:20:12;;;;;;;4.93;2.45;;;22.20;91.10;;;;;;5095816;28;20787;-73
2022/06/30 00:22:38;;;;;;;3.90;2.35;;;22.20;91.10;;;;;;5092250;28;20541;-74
2022/06/30 00:25:04;;;;;;;4.27;2.20;;;22.10;91.20;;;;;;5095419;27;20451;-73
2022/06/30 00:27:30;;;;;;;3.20;2.00;;;22.10;91.00;;;;;;5088542;28;20421;-73
2022/06/30 00:29:56;;;;;;;4.93;2.20;;;22.10;91.10;;;;;;5088835;28;20410;-73
2022/06/30 00:32:21;;;;;;;4.00;1.98;;;22.20;90.90;;;;;;5089891;28;20402;-73
2022/06/30 00:34:47;;;;;;;3.78;2.20;;;22.20;90.90;;;;;;5089293;28;20413;-73
2022/06/30 00:37:13;;;;;;;2.57;1.90;;;22.20;90.90;;;;;;5089736;28;20436;-73
2022/06/30 00:39:38;;;;;;;4.13;2.10;;;22.20;90.80;;;;;;5089563;28;20472;-73
2022/06/30 00:42:05;;;;;;;3.80;2.35;;;22.20;90.90;;;;;;5089521;28;20493;-73
2022/06/30 00:44:31;;;;;;;4.37;1.97;;;22.10;90.50;;;;;;5089291;28;20406;-74
2022/06/30 00:46:57;;;;;;;4.07;2.20;;;22.10;90.70;;;;;;5089685;28;20410;-73
2022/06/30 00:49:23;;;;;;;3.55;1.85;;;22.10;90.60;;;;;;5087483;28;20437;-73
2022/06/30 00:51:49;;;;;;;2.60;1.80;;;22.10;90.60;;;;;;5087741;28;20437;-73
2022/06/30 00:54:16;;;;;;;4.20;2.63;;;22.10;90.40;;;;;;5075682;28;20437;-74
2022/06/30 00:56:46;;;;;;;3.22;2.40;;;22.00;90.50;;;;;;5076371;28;20752;-73
2022/06/30 00:59:14;;;;;;;4.43;2.45;;;22.00;90.50;;;;;;5089077;28;20437;-73
2022/06/30 01:01:42;;;;;;;3.77;2.30;;;21.90;90.50;;;;;;5089506;28;20771;-73
2022/06/30 01:04:08;;;;;;;3.78;2.20;;;21.90;90.80;;;;;;5089309;28;20807;-73
2022/06/30 01:06:35;;;;;;;3.55;2.15;;;21.90;90.80;;;;;;5088703;28;20394;-73
2022/06/30 01:09:00;;;;;;;3.60;2.20;;;21.80;90.80;;;;;;5089255;28;20422;-73
2022/06/30 01:14:10;;;;;;;2.55;1.90;;;21.70;91.00;;;;;;5089020;28;20412;-74
2022/06/30 01:16:42;;;;;;;4.97;2.27;;;21.70;91.00;;;;;;5088861;28;20402;-73
2022/06/30 01:19:08;;;;;;;5.22;2.50;;;21.60;91.00;;;;;;5089117;28;20433;-73
2022/06/30 01:21:34;;;;;;;3.00;2.03;;;21.60;91.10;;;;;;5087428;28;20422;-73
2022/06/30 01:23:59;;;;;;;4.30;2.53;;;21.60;91.10;;;;;;5088502;28;20438;-73
2022/06/30 01:26:27;;;;;;;4.22;2.55;;;21.50;91.20;;;;;;5088653;28;20463;-73
2022/06/30 01:28:53;;;;;;;3.58;2.10;;;21.50;91.30;;;;;;5088150;28;20433;-73
2022/06/30 01:31:19;;;;;;;5.13;2.30;;;21.40;91.40;;;;;;5088741;28;20404;-73
2022/06/30 01:33:45;;;;;;;4.27;2.20;;;21.40;91.50;;;;;;5088565;28;20814;-73
2022/06/30 01:36:11;;;;;;;4.28;2.40;;;21.40;91.60;;;;;;5088935;28;20406;-73
2022/06/30 01:38:36;;;;;;;4.15;2.00;;;21.30;91.70;;;;;;5088486;28;20397;-73
2022/06/30 01:41:02;;;;;;;4.00;2.10;;;21.30;91.70;;;;;;5076520;28;20435;-74
2022/06/30 01:43:28;;;;;;;5.45;2.30;;;21.20;91.70;;;;;;5086805;28;20402;-73
2022/06/30 01:45:54;;;;;;;2.77;1.87;;;21.20;91.70;;;;;;5088555;28;20410;-73
2022/06/30 01:48:20;;;;;;;4.00;2.03;;;21.20;91.70;;;;;;5088410;28;20942;-73
2022/06/30 01:50:45;;;;;;;6.93;2.50;;;21.10;91.60;;;;;;5088005;28;20753;-73
2022/06/30 01:53:11;;;;;;;3.17;1.90;;;21.10;91.60;;;;;;5083469;28;20750;-74
2022/06/30 01:55:37;;;;;;;4.73;2.10;;;21.10;91.50;;;;;;5079857;28;20410;-73
2022/06/30 01:58:03;;;;;;;4.07;2.00;;;21.10;91.60;;;;;;5088231;28;20397;-73
2022/06/30 02:00:29;;;;;;;3.65;2.45;;;21.00;91.50;;;;;;5086539;28;20433;-73
2022/06/30 02:02:56;;;;;;;4.05;2.15;;;21.00;91.40;;;;;;5088109;28;20432;-74
2022/06/30 02:05:23;;;;;;;5.13;2.70;;;21.00;91.70;;;;;;5088413;28;20405;-73
2022/06/30 02:07:50;;;;;;;4.22;2.22;;;21.00;91.50;;;;;;5088276;28;20406;-73
2022/06/30 02:10:19;;;;;;;3.20;2.38;;;21.00;91.50;;;;;;5088383;28;20408;-73
2022/06/30 02:12:46;;;;;;;4.95;2.50;;;21.00;91.60;;;;;;5087666;28;20406;-73
2022/06/30 02:15:24;;;;;;;4.60;2.10;;;20.90;91.50;;;;;;5087542;28;20466;-73
2022/06/30 02:17:54;;;;;;;3.55;2.17;;;20.90;91.60;;;;;;5088067;28;20475;-73
2022/06/30 02:20:21;;;;;;;2.78;1.95;;;20.90;91.60;;;;;;5087869;28;20437;-73
2022/06/30 02:22:49;;;;;;;5.53;2.10;;;20.80;91.60;;;;;;5088015;28;20398;-74
2022/06/30 02:25:16;;;;;;;3.58;2.20;;;20.80;91.80;;;;;;5088232;28;20410;-73
2022/06/30 02:27:41;;;;;;;5.00;2.10;;;20.70;91.90;;;;;;5087841;28;20447;-73
2022/06/30 02:30:08;;;;;;;4.90;1.93;;;20.70;92.00;;;;;;5088108;28;20795;-74
2022/06/30 02:32:34;;;;;;;5.65;2.17;;;20.70;92.10;;;;;;5088343;28;20404;-73
2022/06/30 02:35:00;;;;;;;5.23;2.30;;;20.60;92.30;;;;;;5087453;28;20539;-73
2022/06/30 02:37:26;;;;;;;4.53;2.47;;;20.50;92.30;;;;;;5088302;28;20481;-73
2022/06/30 02:39:52;;;;;;;5.00;2.60;;;20.50;92.50;;;;;;5087719;28;20562;-74
2022/06/30 02:42:18;;;;;;;4.83;2.70;;;20.50;92.50;;;;;;5091560;28;20874;-73
2022/06/30 02:44:44;;;;;;;4.50;2.67;;;20.50;92.50;;;;;;5091297;28;20437;-74
2022/06/30 02:47:09;;;;;;;3.70;2.43;;;20.50;92.60;;;;;;5089594;28;20894;-73
2022/06/30 02:49:37;;;;;;;5.05;2.47;;;20.40;92.70;;;;;;5091420;28;20515;-73
2022/06/30 02:52:03;;;;;;;3.03;2.17;;;20.40;92.80;;;;;;5091650;28;20464;-73
2022/06/30 02:54:29;;;;;;;4.63;2.72;;;20.40;92.60;;;;;;5091662;28;20398;-73
2022/06/30 02:56:55;;;;;;;5.27;2.50;;;20.40;92.60;;;;;;5091710;28;20405;-73
2022/06/30 02:59:20;;;;;;;2.95;2.25;;;20.30;92.80;;;;;;5091297;28;20982;-73
2022/06/30 03:01:46;;;;;;;3.63;2.43;;;20.30;92.80;;;;;;5091375;28;20435;-73
2022/06/30 03:04:12;;;;;;;5.50;2.38;;;20.30;92.80;;;;;;5091574;28;20408;-73
2022/06/30 03:06:37;;;;;;;4.47;2.20;;;20.30;93.00;;;;;;5091567;28;20402;-73
2022/06/30 03:09:03;;;;;;;4.03;2.20;;;20.30;93.00;;;;;;5091246;28;20405;-73
2022/06/30 03:11:29;;;;;;;5.10;2.42;;;20.30;93.10;;;;;;5091179;28;20408;-73
2022/06/30 03:13:56;;;;;;;3.40;2.30;;;20.30;93.30;;;;;;5089084;28;20406;-73
2022/06/30 03:16:22;;;;;;;5.18;2.20;;;20.20;93.20;;;;;;5091143;28;20849;-73
2022/06/30 03:18:47;;;;;;;7.03;2.30;;;20.20;93.20;;;;;;5091034;28;20405;-73
2022/06/30 03:21:13;;;;;;;4.45;2.15;;;20.20;93.30;;;;;;5090830;28;20803;-73
2022/06/30 03:23:39;;;;;;;4.90;2.05;;;20.20;93.40;;;;;;5090872;28;20453;-73
2022/06/30 03:26:06;;;;;;;5.00;1.95;;;20.10;93.30;;;;;;5091330;28;20428;-73
2022/06/30 03:28:32;;;;;;;4.75;2.08;;;20.10;93.30;;;;;;5090845;28;20460;-74
2022/06/30 03:30:58;;;;;;;3.70;1.80;;;20.00;93.30;;;;;;5077801;28;20410;-73
2022/06/30 03:33:24;;;;;;;3.65;1.80;;;20.00;93.40;;;;;;5090432;28;20903;-73
2022/06/30 03:35:50;;;;;;;4.05;1.80;;;20.10;93.80;;;;;;5089319;28;20410;-73
2022/06/30 03:38:16;;;;;;;4.78;2.05;;;20.00;93.40;;;;;;5090512;28;20752;-73
2022/06/30 03:40:42;;;;;;;3.45;1.90;;;20.00;93.70;;;;;;5089573;28;20437;-73
2022/06/30 03:43:08;;;;;;;3.37;1.80;;;20.00;93.80;;;;;;5090271;28;20863;-73
2022/06/30 03:45:35;;;;;;;3.67;1.88;;;20.00;93.70;;;;;;5089883;28;20402;-73
2022/06/30 03:48:05;;;;;;;5.07;1.80;;;20.00;93.70;;;;;;5090514;28;20429;-74
2022/06/30 03:50:31;;;;;;;4.10;1.80;;;20.00;93.80;;;;;;5090621;28;20406;-73
2022/06/30 03:52:58;;;;;;;3.33;1.92;;;20.00;93.80;;;;;;5089913;28;20399;-72
2022/06/30 03:55:24;;;;;;;3.78;1.80;;;20.00;93.80;;;;;;5090019;28;20402;-74
2022/06/30 03:57:50;;;;;;;3.92;1.83;;;20.00;94.00;;;;;;5089008;28;20419;-73
2022/06/30 04:00:16;;;;;;;3.60;1.70;;;20.00;93.80;;;;;;5090456;28;20433;-72
2022/06/30 04:02:42;;;;;;;3.58;1.83;;;20.00;93.80;;;;;;5090471;28;20398;-73
2022/06/30 04:05:07;;;;;;;3.47;1.73;;;20.00;93.90;;;;;;5090281;28;20776;-73
2022/06/30 04:07:41;;;;;;;3.17;1.73;;;20.00;93.90;;;;;;5090349;28;20401;-73
2022/06/30 04:10:09;;;;;;;3.30;2.00;;;20.00;93.80;;;;;;5089996;28;20410;-73
2022/06/30 04:12:34;;;;;;;3.53;1.73;;;19.90;93.80;;;;;;5090424;28;20919;-74
2022/06/30 04:15:00;;;;;;;3.92;1.77;;;19.90;94.00;;;;;;5089922;28;20412;-74
2022/06/30 04:17:26;;;;;;;3.93;1.90;;;19.90;93.90;;;;;;5090173;28;20401;-73
2022/06/30 04:19:51;;;;;;;3.35;1.40;;;19.90;93.90;;;;;;5089860;28;20445;-73
2022/06/30 04:22:17;;;;;;;3.40;1.88;;;19.90;94.20;;;;;;5090068;28;20772;-73
2022/06/30 04:24:42;;;;;;;3.57;1.80;;;19.90;94.10;;;;;;5089848;28;20499;-73
2022/06/30 04:27:08;;;;;;;4.88;2.10;;;19.90;94.10;;;;;;5089480;28;20424;-73
2022/06/30 04:29:34;;;;;;;4.22;1.90;;;20.00;94.10;;;;;;5089966;28;20612;-73
2022/06/30 04:34:44;;;;;;;4.35;1.95;;;20.00;94.30;;;;;;5089914;28;20467;-73
2022/06/30 04:37:10;;;;;;;3.92;1.70;;;20.00;94.30;;;;;;5090118;28;20499;-73
2022/06/30 04:39:35;;;;;;;6.20;2.03;;;20.00;94.40;;;;;;5089626;28;20434;-73
2022/06/30 04:42:01;;;;;;;2.70;1.75;;;20.00;94.30;;;;;;5089152;28;20398;-73
2022/06/30 04:44:27;;;;;;;4.97;1.77;;;20.00;94.30;;;;;;5089415;28;20891;-73
2022/06/30 04:46:52;;;;;;;3.47;1.70;;;20.00;94.60;;;;;;5076814;28;20410;-73
2022/06/30 04:49:18;;;;;;;4.07;1.80;;;20.00;94.60;;;;;;5088308;28;20448;-73
2022/06/30 04:51:44;;;;;;;3.30;1.80;;;19.90;94.60;;;;;;5089048;28;20489;-73
2022/06/30 04:54:09;;;;;;;3.47;1.90;;;19.90;94.80;;;;;;5089408;28;20952;-73
2022/06/30 04:56:35;;;;;;;3.03;1.90;;;19.90;94.90;;;;;;5087803;28;20445;-73
2022/06/30 04:59:00;;;;;;;3.83;2.00;;;19.90;95.10;;;;;;5089023;28;20980;-73
2022/06/30 05:01:26;;;;;;;5.33;1.93;;;20.00;95.10;;;;;;5089069;28;20542;-73
2022/06/30 05:03:52;;;;;;;5.22;2.20;;;20.10;95.10;;;;;;5088138;28;20501;-73
2022/06/30 05:06:17;;;;;;;3.80;2.00;;;20.10;95.20;;;;;;5089090;28;20890;-73
2022/06/30 05:08:43;;;;;;;3.70;1.90;;;20.20;95.20;;;;;;5088916;28;21247;-73
2022/06/30 05:11:09;;;;;;;4.78;2.10;;;20.20;95.10;;;;;;5088892;28;20406;-73
2022/06/30 05:13:34;;;;;;;3.83;1.87;;;20.20;95.20;;;;;;5089103;28;20428;-73
2022/06/30 05:16:02;;;;;;;3.42;1.90;;;20.30;95.00;;;;;;5087061;28;20516;-73
2022/06/30 05:18:28;;;;;;;7.25;2.05;;;20.30;94.90;;;;;;5088704;28;20929;-73
2022/06/30 05:20:54;;;;;;;5.85;2.28;;;20.40;95.10;;;;;;5088549;28;20426;-73
2022/06/30 05:23:20;;;;;;;5.35;2.20;;;20.40;95.00;;;;;;5088744;28;20425;-73
2022/06/30 05:28:30;;;;;;;4.47;2.10;;;20.40;94.90;;;;;;5088739;28;20406;-73
2022/06/30 05:30:56;;;;;;;3.57;1.70;;;20.40;94.70;;;;;;5088172;28;20448;-73
2022/06/30 05:33:22;;;;;;;3.92;1.85;;;20.50;94.60;;;;;;5088771;28;20417;-73
2022/06/30 05:35:50;;;;;;;4.50;1.70;;;20.50;94.50;;;;;;5088151;28;20432;-73
2022/06/30 05:38:16;;;;;;;3.75;1.98;;;20.50;94.60;;;;;;5088626;28;20394;-73
2022/06/30 05:40:42;;;;;;;4.53;1.97;;;20.50;94.70;;;;;;5088032;28;20429;-74
2022/06/30 05:43:11;;;;;;;5.65;2.00;;;20.50;94.60;;;;;;5087194;28;20425;-73
2022/06/30 05:45:37;;;;;;;3.30;1.83;;;20.50;94.50;;;;;;5087784;28;20828;-73
2022/06/30 05:48:03;;;;;;;3.45;1.70;;;20.50;94.50;;;;;;5088454;28;20468;-73
2022/06/30 05:50:30;;;;;;;3.33;1.70;;;20.50;94.80;;;;;;5088648;28;20438;-73
2022/06/30 05:52:56;;;;;;;5.72;1.80;;;20.50;94.90;;;;;;5086225;28;20969;-72
2022/06/30 05:55:22;;;;;;;4.03;1.70;;;20.60;94.60;;;;;;5086718;28;20504;-72
2022/06/30 05:57:53;;;;;;;3.77;1.97;;;20.60;94.90;;;;;;5090136;28;20436;-72
2022/06/30 06:00:20;;;;;;;4.40;2.08;;;20.50;94.80;;;;;;5082053;28;20430;-73
2022/06/30 06:02:46;;;;;;;5.40;1.95;;;20.50;94.60;;;;;;5099350;28;20816;-73
2022/06/30 06:05:11;;;;;;;3.42;1.80;;;20.40;94.30;;;;;;5087722;28;20414;-72
2022/06/30 06:07:37;;;;;;;4.37;2.00;;;20.40;94.70;;;;;;5088052;28;20398;-72
2022/06/30 06:10:03;;;;;;;3.58;2.13;;;20.40;94.90;;;;;;5086898;28;20424;-72
2022/06/30 06:12:29;;;;;;;4.40;1.90;;;20.40;95.20;;;;;;5087695;28;20870;-72
2022/06/30 06:14:55;;;;;;;5.17;2.23;;;20.50;95.10;;;;;;5085085;28;20414;-72
2022/06/30 06:17:20;;;;;;;4.77;2.20;;;20.60;95.30;;;;;;5087245;28;20414;-73
2022/06/30 06:19:46;;;;;;;4.90;1.92;;;20.70;95.20;;;;;;5089738;28;20433;-73
2022/06/30 06:22:12;;;;;;;2.97;1.73;;;20.80;95.10;;;;;;5097212;28;20429;-73
2022/06/30 06:24:37;;;;;;;3.72;1.80;;;20.90;95.10;;;;;;5090264;28;20430;-73
2022/06/30 06:27:03;;;;;;;2.92;1.80;;;21.00;95.20;;;;;;5087778;28;20397;-73
2022/06/30 06:29:29;;;;;;;3.38;2.00;;;21.20;95.20;;;;;;5087166;28;20516;-73
2022/06/30 06:31:55;;;;;;;4.03;2.20;;;21.30;95.10;;;;;;5097101;28;20915;-73
2022/06/30 06:34:21;;;;;;;3.30;2.08;;;21.40;94.70;;;;;;5084314;28;20422;-73
2022/06/30 06:36:47;;;;;;;4.35;2.03;;;21.50;94.70;;;;;;5086530;28;20410;-73
2022/06/30 06:39:13;;;;;;;5.77;2.20;;;21.60;95.30;;;;;;5087899;28;20464;-73
2022/06/30 06:41:38;;;;;;;4.47;2.30;;;21.70;95.30;;;;;;5087938;28;20779;-73
2022/06/30 06:44:04;;;;;;;4.60;2.42;;;21.80;95.20;;;;;;5090939;28;20497;-73
2022/06/30 06:46:31;;;;;;;5.43;2.50;;;21.90;95.20;;;;;;5086388;28;20394;-73
2022/06/30 06:49:03;;;;;;;3.35;2.20;;;22.00;95.30;;;;;;5086259;28;20466;-73
2022/06/30 06:51:29;;;;;;;4.22;2.65;;;22.10;95.20;;;;;;5086480;28;20390;-73
2022/06/30 06:53:55;;;;;;;4.90;2.28;;;22.30;95.10;;;;;;5078153;28;20393;-73
2022/06/30 06:56:21;;;;;;;6.03;2.30;;;22.30;95.10;;;;;;5091459;28;20453;-73
2022/06/30 06:58:48;;;;;;;5.13;2.00;;;22.40;95.10;;;;;;5093464;28;20941;-72
2022/06/30 07:01:13;;;;;;;5.72;2.58;;;22.40;95.30;;;;;;5099815;28;20488;-73
2022/06/30 07:03:40;;;;;;;5.10;2.60;;;22.40;95.00;;;;;;5088978;28;20397;-73
2022/06/30 07:06:06;;;;;;;3.28;2.58;;;22.30;95.10;;;;;;5086372;28;20479;-73
2022/06/30 07:08:32;;;;;;;6.13;3.03;;;22.30;95.10;;;;;;5086332;28;20414;-73
2022/06/30 07:10:59;;;;;;;4.30;2.22;;;22.30;95.50;;;;;;5078392;28;20418;-73
2022/06/30 07:13:25;;;;;;;6.95;2.35;;;22.40;95.60;;;;;;5079733;28;20764;-73
2022/06/30 07:15:51;;;;;;;4.72;2.63;;;22.50;95.70;;;;;;5086351;28;20410;-73
2022/06/30 07:18:17;;;;;;;4.40;2.23;;;22.50;95.80;;;;;;5081773;28;20895;-73
2022/06/30 07:20:43;;;;;;;4.47;2.70;;;22.60;95.70;;;;;;5081660;28;20469;-73
2022/06/30 07:23:08;;;;;;;6.37;2.93;;;22.70;95.50;;;;;;5081838;28;20426;-73
2022/06/30 07:25:34;;;;;;;6.03;2.80;;;22.70;95.70;;;;;;5084707;28;20405;-73
2022/06/30 07:28:00;;;;;;;5.32;2.88;;;22.80;95.60;;;;;;5088615;28;20848;-73
2022/06/30 07:30:26;;;;;;;5.22;3.10;;;23.00;96.20;;;;;;5078519;28;20395;-73
2022/06/30 07:32:52;;;;;;;5.20;2.77;;;23.10;95.80;;;;;;5089575;28;20408;-74
2022/06/30 07:35:18;;;;;;;7.28;3.53;;;23.10;95.80;;;;;;5089657;28;20412;-73
2022/06/30 07:37:43;;;;;;;6.87;3.20;;;23.30;95.50;;;;;;5088181;28;20405;-74
2022/06/30 07:40:11;;;;;;;3.70;2.72;;;23.30;95.20;;;;;;5089125;28;20545;-74
2022/06/30 07:42:37;;;;;;;4.60;3.10;;;23.40;94.90;;;;;;5089445;28;20394;-73
2022/06/30 07:45:03;;;;;;;4.27;2.80;;;23.50;94.90;;;;;;5085954;28;20922;-73
2022/06/30 07:47:29;;;;;;;6.78;3.22;;;23.70;95.20;;;;;;5086070;28;20421;-74
2022/06/30 07:49:55;;;;;;;6.22;3.30;;;23.80;95.00;;;;;;5089377;28;20410;-73
2022/06/30 07:52:20;;;;;;;5.20;2.90;;;24.00;94.60;;;;;;5088810;28;20464;-73
2022/06/30 07:54:46;;;;;;;4.77;3.10;;;24.00;94.60;;;;;;5083138;28;20426;-73
2022/06/30 07:57:12;;;;;;;4.35;2.80;;;24.20;94.70;;;;;;5101354;28;20410;-73
2022/06/30 07:59:39;;;;;;;5.20;3.10;;;24.20;94.30;;;;;;5094253;28;20437;-74
2022/06/30 08:02:05;;;;;;;4.30;3.30;;;24.20;94.60;;;;;;5091543;28;20440;-73
2022/06/30 08:04:31;;;;;;;6.72;3.25;;;24.10;94.60;;;;;;5097579;28;20398;-73
2022/06/30 08:06:56;;;;;;;5.20;3.37;;;24.20;94.90;;;;;;5096164;28;20416;-73
2022/06/30 08:09:22;;;;;;;6.72;4.00;;;24.20;94.90;;;;;;5091677;28;21399;-73
2022/06/30 08:11:48;;;;;;;4.70;3.70;;;24.30;94.70;;;;;;5083378;28;20471;-73
2022/06/30 08:14:13;;;;;;;5.73;3.70;;;24.30;94.70;;;;;;5090320;28;20405;-73
2022/06/30 08:16:39;;;;;;;5.45;3.90;;;24.40;94.70;;;;;;5090210;28;20410;-73
2022/06/30 08:19:05;;;;;;;5.72;3.85;;;24.40;94.50;;;;;;5089384;28;20402;-73
2022/06/30 08:21:31;;;;;;;4.93;3.83;;;24.40;94.90;;;;;;5089929;28;20428;-73
2022/06/30 08:23:56;;;;;;;4.85;4.00;;;24.50;95.10;;;;;;5090168;28;20394;-74
2022/06/30 08:26:22;;;;;;;7.10;4.30;;;24.60;94.80;;;;;;5089273;28;20490;-73
2022/06/30 08:28:49;;;;;;;5.07;3.83;;;24.60;94.70;;;;;;5089654;28;20884;-73
2022/06/30 08:31:16;;;;;;;7.55;4.00;;;24.70;94.90;;;;;;5090045;28;20922;-74
2022/06/30 08:33:41;;;;;;;6.88;4.57;;;24.70;94.50;;;;;;5089917;28;20405;-74
2022/06/30 08:36:08;;;;;;;5.90;3.75;;;24.70;94.70;;;;;;5089033;28;20397;-74
2022/06/30 08:38:34;;;;;;;8.25;4.35;;;24.80;94.50;;;;;;5088894;28;20460;-74
2022/06/30 08:43:45;;;;;;;5.82;4.00;;;25.00;94.30;;;;;;5085755;28;20422;-74
2022/06/30 08:46:12;;;;;;;6.13;4.45;;;25.00;94.90;;;;;;5088523;28;20430;-74
2022/06/30 08:48:39;;;;;;;7.03;4.70;;;25.20;94.60;;;;;;5095273;28;20473;-74
2022/06/30 08:51:06;;;;;;;5.82;4.60;;;25.20;94.40;;;;;;5088359;28;20835;-74
2022/06/30 08:53:53;;;;;;;6.15;4.60;;;25.30;94.10;;;;;;5088586;28;20479;-74
2022/06/30 08:56:19;;;;;;;6.07;4.53;;;25.30;93.80;;;;;;5095534;28;20942;-74
2022/06/30 08:58:47;;;;;;;6.63;4.78;;;25.30;94.10;;;;;;5088468;28;20500;-74
2022/06/30 09:01:13;;;;;;;6.75;4.95;;;25.30;94.10;;;;;;5089080;28;20475;-74
2022/06/30 09:03:39;;;;;;;6.82;4.70;;;25.40;94.10;;;;;;5088040;28;20414;-74
2022/06/30 09:06:06;;;;;;;8.03;4.87;;;25.50;93.90;;;;;;5088040;28;20451;-74
2022/06/30 09:08:31;;;;;;;8.30;5.30;;;25.60;93.60;;;;;;5090950;28;20430;-74
2022/06/30 09:10:57;;;;;;;6.82;4.50;;;25.70;93.30;;;;;;5088888;28;20390;-74
2022/06/30 09:13:24;;;;;;;7.67;5.83;;;25.80;93.80;;;;;;5084786;28;20406;-73
2022/06/30 09:15:51;;;;;;;8.20;5.43;;;25.90;93.30;;;;;;5088981;28;20394;-73
2022/06/30 09:18:28;;;;;;;6.38;4.68;;;26.00;93.20;;;;;;5084462;28;20422;-73
2022/06/30 09:20:55;;;;;;;7.13;4.95;;;26.00;93.10;;;;;;5084760;28;20791;-74
2022/06/30 09:23:26;;;;;;;7.07;4.90;;;26.10;92.80;;;;;;5077990;28;20412;-74
2022/06/30 09:25:58;;;;;;;7.68;5.00;;;26.20;92.60;;;;;;5086147;28;20806;-74
2022/06/30 09:28:46;;;;;;;6.25;4.85;;;26.30;92.70;;;;;;5087580;28;20421;-74
2022/06/30 09:31:29;;;;;;;7.43;4.88;;;26.40;92.10;;;;;;5082840;28;20411;-74
2022/06/30 09:33:55;;;;;;;7.57;5.27;;;26.40;92.60;;;;;;5087551;28;20414;-74
2022/06/30 09:36:23;;;;;;;7.18;5.15;;;26.60;92.40;;;;;;5091394;28;20470;-74
2022/06/30 09:39:10;;;;;;;7.55;5.20;;;26.90;92.10;;;;;;5088171;28;20398;-74
2022/06/30 09:41:41;;;;;;;6.72;4.90;;;27.20;91.50;;;;;;5088374;28;20410;-74
2022/06/30 09:44:17;;;;;;;6.75;5.28;;;27.50;91.40;;;;;;5087686;28;20524;-74
2022/06/30 09:47:02;;;;;;;7.30;4.88;;;27.80;90.80;;;;;;5085078;28;20462;-74
2022/06/30 09:49:33;;;;;;;7.15;4.70;;;28.00;90.80;;;;;;5087547;28;20927;-74
2022/06/30 09:52:00;;;;;;;5.97;4.80;;;28.30;90.90;;;;;;5087325;28;20437;-74
2022/06/30 09:54:26;;;;;;;6.95;4.25;;;28.60;91.00;;;;;;5068993;28;20431;-74
2022/06/30 09:57:06;;;;;;;6.03;4.68;;;28.90;90.50;;;;;;5086997;28;20428;-74
2022/06/30 09:59:33;;;;;;;6.95;4.45;;;29.10;88.50;;;;;;5087971;28;20456;-74
2022/06/30 10:02:03;;;;;;;6.50;4.90;;;29.20;86.90;;;;;;5087326;28;20412;-74
2022/06/30 10:04:29;;;;;;;6.93;4.20;;;29.20;86.60;;;;;;5091457;28;20405;-74
2022/06/30 10:06:56;;;;;;;6.05;4.10;;;29.40;88.60;;;;;;5087699;28;20516;-74
2022/06/30 10:09:21;;;;;;;5.18;4.13;;;29.60;87.80;;;;;;5087143;28;20419;-74
2022/06/30 10:11:47;;;;;;;6.07;4.30;;;29.80;86.90;;;;;;5087001;28;20413;-75
2022/06/30 10:14:16;;;;;;;5.47;4.18;;;30.00;84.90;;;;;;5092762;28;20931;-74
2022/06/30 10:16:43;;;;;;;6.30;4.82;;;30.20;84.40;;;;;;5092328;28;20427;-75
2022/06/30 10:19:12;;;;;;;5.18;4.50;;;30.30;82.60;;;;;;5090600;28;20493;-74
2022/06/30 10:21:39;;;;;;;5.43;4.15;;;30.40;81.90;;;;;;5087111;28;20402;-74
2022/06/30 10:24:08;;;;;;;7.45;4.40;;;30.40;81.50;;;;;;5077645;28;20426;-74
2022/06/30 10:29:19;;;;;;;5.43;3.85;;;30.50;83.90;;;;;;5082521;28;20805;-74
2022/06/30 10:31:58;;;;;;;4.35;3.33;;;30.70;82.40;;;;;;5085454;28;20394;-74
2022/06/30 10:34:28;;;;;;;4.53;3.15;;;30.80;78.70;;;;;;5081351;28;20515;-74
2022/06/30 10:37:15;;;;;;;5.80;3.50;;;31.00;77.80;;;;;;5086750;28;20485;-75
2022/06/30 10:39:52;;;;;;;4.50;3.57;;;31.10;76.60;;;;;;5083568;28;20494;-74
2022/06/30 10:42:50;;;;;;;4.35;3.50;;;31.20;77.50;;;;;;5079654;28;20436;-74
2022/06/30 10:45:31;;;;;;;4.68;3.80;;;31.40;77.60;;;;;;5082195;28;20493;-74
2022/06/30 10:48:05;;;;;;;5.05;3.80;;;31.70;77.00;;;;;;5084235;28;20410;-74
2022/06/30 10:50:42;;;;;;;6.07;3.80;;;31.80;74.80;;;;;;5077396;28;20434;-74
2022/06/30 10:53:13;;;;;;;4.65;3.67;;;31.90;74.30;;;;;;5086113;28;20468;-74
2022/06/30 10:55:49;;;;;;;5.25;3.90;;;31.90;72.70;;;;;;5086170;28;20402;-74
2022/06/30 10:58:15;;;;;;;5.63;4.03;;;31.80;71.60;;;;;;5086136;28;20505;-74
2022/06/30 11:01:00;;;;;;;5.27;3.83;;;32.00;73.20;;;;;;5082364;28;20505;-74
2022/06/30 11:03:45;;;;;;;4.73;3.90;;;32.10;71.40;;;;;;5089487;28;20402;-74
2022/06/30 11:06:13;;;;;;;6.80;3.75;;;32.30;71.40;;;;;;5077596;28;20979;-74
2022/06/30 11:08:48;;;;;;;5.60;3.83;;;32.40;72.00;;;;;;5088281;28;20479;-75
2022/06/30 11:11:22;;;;;;;5.72;3.65;;;32.50;70.60;;;;;;5087029;28;20425;-75
2022/06/30 11:14:04;;;;;;;6.70;4.43;;;32.60;69.80;;;;;;5085474;28;20962;-75
2022/06/30 11:16:37;;;;;;;5.72;4.03;;;32.80;70.00;;;;;;5089387;28;20471;-75
2022/06/30 11:19:04;;;;;;;6.72;4.43;;;32.90;69.80;;;;;;5090807;28;20919;-74
2022/06/30 11:21:31;;;;;;;5.63;4.15;;;33.10;69.50;;;;;;5094374;28;20410;-74
2022/06/30 11:24:01;;;;;;;5.75;3.65;;;33.30;69.00;;;;;;5087164;28;20420;-74
2022/06/30 11:29:17;;;;;;;5.70;3.90;;;33.20;67.10;;;;;;5098766;28;20409;-75
2022/06/30 11:31:43;;;;;;;7.20;4.50;;;33.00;67.70;;;;;;5089303;28;20438;-74
2022/06/30 11:34:09;;;;;;;5.03;4.20;;;32.70;68.00;;;;;;5091064;28;20477;-74
2022/06/30 11:36:36;;;;;;;6.38;3.97;;;32.80;68.30;;;;;;5090448;28;20983;-75
2022/06/30 11:39:06;;;;;;;4.68;3.83;;;33.00;69.30;;;;;;5097254;28;21198;-75
2022/06/30 11:44:21;;;;;;;5.78;4.10;;;33.30;66.80;;;;;;5081427;28;20406;-74
2022/06/30 11:46:58;;;;;;;7.63;4.30;;;33.40;65.70;;;;;;5090047;28;20471;-75
2022/06/30 11:49:41;;;;;;;4.88;3.88;;;33.40;65.90;;;;;;5091989;28;20436;-74
2022/06/30 11:52:29;;;;;;;5.40;4.00;;;33.50;65.50;;;;;;5080647;28;20412;-75
2022/06/30 11:55:04;;;;;;;5.35;3.60;;;33.80;64.60;;;;;;5090401;28;20452;-75
2022/06/30 11:57:49;;;;;;;4.60;3.93;;;34.00;65.00;;;;;;5096569;28;20429;-75
2022/06/30 12:00:18;;;;;;;6.07;3.95;;;34.00;63.40;;;;;;5089721;28;20521;-74
2022/06/30 12:02:46;;;;;;;5.97;3.90;;;33.60;62.50;;;;;;5089989;28;20409;-74
2022/06/30 12:05:13;;;;;;;6.20;4.07;;;33.20;63.80;;;;;;5089254;28;20893;-74
2022/06/30 12:07:40;;;;;;;4.43;3.50;;;33.00;63.80;;;;;;5091772;28;20765;-75
2022/06/30 12:10:08;;;;;;;4.90;3.28;;;33.00;64.60;;;;;;5089063;28;20414;-75
2022/06/30 12:12:36;;;;;;;3.97;3.33;;;33.30;64.50;;;;;;5089330;28;20489;-75
2022/06/30 12:15:20;;;;;;;4.75;3.30;;;33.70;63.30;;;;;;5088917;28;20441;-75
2022/06/30 12:17:53;;;;;;;5.13;3.22;;;34.10;62.40;;;;;;5090037;28;20047;-75
2022/06/30 12:20:21;;;;;;;5.43;3.83;;;34.30;62.60;;;;;;5090427;28;20048;-73
2022/06/30 12:22:49;;;;;;;5.05;3.40;;;34.50;62.00;;;;;;5096835;28;20060;-74
2022/06/30 12:25:16;;;;;;;5.35;3.53;;;34.30;60.00;;;;;;5093627;28;20412;-73
2022/06/30 12:27:43;;;;;;;4.72;3.40;;;33.80;60.60;;;;;;5091154;28;20417;-74
2022/06/30 12:30:24;;;;;;;4.20;3.30;;;33.30;62.10;;;;;;5092683;28;20534;-74
2022/06/30 12:32:58;;;;;;;4.90;3.50;;;33.00;62.30;;;;;;5087553;28;20457;-74
2022/06/30 12:35:27;;;;;;;5.50;3.80;;;32.80;62.70;;;;;;5092762;28;20414;-74
2022/06/30 12:37:53;;;;;;;4.90;3.72;;;32.40;62.60;;;;;;5089682;28;20407;-74
2022/06/30 12:40:25;;;;;;;5.35;4.40;;;32.10;63.90;;;;;;5087041;28;21002;-74
2022/06/30 12:42:53;;;;;;;7.05;5.65;;;31.70;63.40;;;;;;5087633;28;20442;-75
2022/06/30 12:45:49;;;;;;;9.73;6.30;;;31.20;64.50;;;;;;5089200;28;20410;-74
2022/06/30 12:48:51;;;;;;;7.40;6.50;;;30.60;66.40;;;;;;5089097;28;20775;-74
2022/06/30 12:51:40;;;;;;;9.02;7.15;;;30.10;68.60;;;;;;5086558;28;20428;-75
2022/06/30 12:54:08;;;;;;;9.43;8.10;;;29.70;70.80;;;;;;5076632;28;20919;-74
2022/06/30 12:56:35;;;;;;;9.02;7.53;;;29.60;72.40;;;;;;5088249;28;20463;-74
2022/06/30 12:59:07;;;;;;;8.35;6.88;;;29.40;72.30;;;;;;5088662;28;20817;-74
2022/06/30 13:01:39;;;;;;;6.97;5.82;;;29.10;72.70;;;;;;5090917;28;20841;-74
2022/06/30 13:04:09;;;;;;;5.72;4.97;;;28.90;72.90;;;;;;5094481;28;20418;-74
2022/06/30 13:06:46;;;;;;;6.93;4.55;;;28.90;72.90;;;;;;5089282;28;21056;-74
2022/06/30 13:09:17;;;;;;;6.50;4.20;;;29.10;73.30;;;;;;5096855;28;20421;-74
2022/06/30 13:11:48;;;;;;;4.88;3.50;;;29.50;73.60;;;;;;5088226;28;20871;-74